Time;durP1;ratioP1;P1;durP2;ratioP2;P2;SDS_P1;SDS_P2;PMS_P1;PMS_P2;Temp;Humidity;BMP_temperature;BMP_pressure;BME280_temperature;BME280_humidity;BME280_pressure;Samples;Min_cycle;Max_cycle;Signal;HPM_P1;HPM_P2
2022/05/11 00:01:50;;;;;;;5.43;4.55;;;21.30;98.90;;;;;;5007790;28;20230;-73
2022/05/11 00:04:17;;;;;;;6.37;4.77;;;21.20;99.10;;;;;;5009309;28;20205;-73
2022/05/11 00:06:44;;;;;;;4.97;4.68;;;21.20;99.30;;;;;;5009097;28;20217;-73
2022/05/11 00:09:13;;;;;;;4.90;4.60;;;21.10;99.60;;;;;;5009118;28;20633;-73
2022/05/11 00:11:41;;;;;;;9.03;4.67;;;21.10;99.80;;;;;;5009262;28;20213;-73
2022/05/11 00:14:07;;;;;;;5.75;4.70;;;21.00;99.90;;;;;;5009180;28;20209;-72
2022/05/11 00:16:35;;;;;;;6.70;5.10;;;21.00;99.90;;;;;;5008990;28;20202;-72
2022/05/11 00:19:04;;;;;;;5.97;4.77;;;20.90;99.90;;;;;;5009289;28;20217;-72
2022/05/11 00:21:31;;;;;;;5.27;4.87;;;20.90;99.90;;;;;;5008978;28;20209;-72
2022/05/11 00:23:57;;;;;;;5.28;4.78;;;20.80;99.90;;;;;;5008984;28;20341;-72
2022/05/11 00:26:24;;;;;;;5.20;4.82;;;20.80;99.90;;;;;;5009263;28;20562;-72
2022/05/11 00:28:51;;;;;;;9.93;5.30;;;20.60;99.90;;;;;;5009065;28;20212;-72
2022/05/11 00:31:30;;;;;;;5.97;5.20;;;20.70;99.90;;;;;;5008260;28;20248;-72
2022/05/11 00:33:58;;;;;;;5.20;4.90;;;20.70;99.90;;;;;;5009214;28;20208;-72
2022/05/11 00:36:29;;;;;;;5.82;5.30;;;20.70;99.90;;;;;;5009053;28;20213;-73
2022/05/11 00:38:56;;;;;;;5.00;4.70;;;20.70;99.90;;;;;;5008810;28;20661;-72
2022/05/11 00:41:25;;;;;;;5.80;5.30;;;20.60;99.90;;;;;;5004518;28;20673;-72
2022/05/11 00:43:54;;;;;;;5.75;5.10;;;20.60;99.90;;;;;;4989243;28;20617;-72
2022/05/11 00:46:36;;;;;;;9.00;5.07;;;20.60;99.90;;;;;;4989103;28;20213;-72
2022/05/11 00:51:58;;;;;;;5.23;4.70;;;20.60;99.90;;;;;;5007665;28;20352;-72
2022/05/11 00:54:31;;;;;;;5.80;5.17;;;20.60;99.90;;;;;;5008209;28;20260;-72
2022/05/11 00:57:04;;;;;;;5.43;5.03;;;20.40;99.90;;;;;;5008358;28;20228;-72
2022/05/11 00:59:34;;;;;;;5.00;4.50;;;20.50;99.90;;;;;;5018022;28;20563;-72
2022/05/11 01:02:04;;;;;;;6.17;5.27;;;20.40;99.90;;;;;;5013458;28;20308;-73
2022/05/11 01:04:34;;;;;;;5.33;4.57;;;20.40;99.90;;;;;;5008202;28;20213;-73
2022/05/11 01:07:02;;;;;;;5.00;4.70;;;20.50;99.90;;;;;;5008331;28;20193;-73
2022/05/11 01:09:29;;;;;;;5.00;4.60;;;20.40;99.90;;;;;;5007538;28;20713;-73
2022/05/11 01:11:59;;;;;;;5.03;4.73;;;20.50;99.90;;;;;;5008301;28;20264;-73
2022/05/11 01:14:32;;;;;;;4.65;4.30;;;20.40;99.90;;;;;;5015870;28;20212;-73
2022/05/11 01:16:59;;;;;;;5.10;4.60;;;20.50;99.90;;;;;;5016608;28;20206;-74
2022/05/11 01:19:29;;;;;;;5.32;4.93;;;20.50;99.90;;;;;;5008022;28;20299;-71
2022/05/11 01:22:03;;;;;;;5.50;5.10;;;20.40;99.90;;;;;;5008111;28;20737;-71
2022/05/11 01:24:35;;;;;;;5.60;5.10;;;20.40;99.90;;;;;;5007649;28;20215;-71
2022/05/11 01:27:23;;;;;;;5.13;4.67;;;20.30;99.90;;;;;;5008044;28;20204;-71
2022/05/11 01:29:51;;;;;;;5.10;4.70;;;20.30;99.90;;;;;;5023075;28;20204;-71
2022/05/11 01:32:18;;;;;;;5.97;4.80;;;20.40;99.90;;;;;;5027922;28;20217;-71
2022/05/11 01:34:45;;;;;;;5.80;4.70;;;20.40;99.90;;;;;;4993669;28;20205;-71
2022/05/11 01:37:12;;;;;;;5.10;4.60;;;20.40;99.90;;;;;;4996853;28;20201;-76
2022/05/11 01:39:43;;;;;;;4.47;4.17;;;20.40;99.90;;;;;;5007149;28;20244;-76
2022/05/11 01:42:09;;;;;;;5.37;4.40;;;20.40;99.90;;;;;;5007911;28;20219;-76
2022/05/11 01:44:36;;;;;;;4.90;4.33;;;20.30;99.90;;;;;;5008040;28;20271;-75
2022/05/11 01:47:03;;;;;;;4.90;4.50;;;20.20;99.90;;;;;;5007573;28;20206;-75
2022/05/11 01:49:31;;;;;;;4.67;4.37;;;20.10;99.90;;;;;;5007504;28;20256;-76
2022/05/11 01:51:59;;;;;;;5.37;4.53;;;20.10;99.90;;;;;;5007862;28;20778;-75
2022/05/11 01:54:26;;;;;;;6.50;4.63;;;20.10;99.90;;;;;;5011461;28;20271;-75
2022/05/11 01:56:54;;;;;;;4.43;4.13;;;19.80;99.90;;;;;;5011455;28;20580;-72
2022/05/11 01:59:21;;;;;;;5.10;4.70;;;19.70;99.90;;;;;;5019730;28;20548;-72
2022/05/11 02:01:48;;;;;;;6.37;4.83;;;19.80;99.90;;;;;;5018104;28;20276;-75
2022/05/11 02:09:45;;;;;;;4.50;4.13;;;19.80;99.90;;;;;;4991982;28;20276;-75
2022/05/11 02:12:13;;;;;;;4.83;4.40;;;19.90;99.90;;;;;;4991667;28;20210;-75
2022/05/11 02:14:40;;;;;;;4.87;4.37;;;19.90;99.90;;;;;;4998806;28;20201;-75
2022/05/11 02:17:08;;;;;;;4.37;4.07;;;19.90;99.90;;;;;;5011436;28;20735;-74
2022/05/11 02:19:35;;;;;;;4.90;4.50;;;20.00;99.90;;;;;;5011280;28;20205;-74
2022/05/11 02:22:01;;;;;;;5.77;4.13;;;19.90;99.90;;;;;;5011407;28;20205;-72
2022/05/11 02:24:28;;;;;;;6.67;4.27;;;19.90;99.90;;;;;;5011078;28;20218;-73
2022/05/11 02:26:55;;;;;;;4.60;4.20;;;19.90;99.90;;;;;;5011360;28;20213;-72
2022/05/11 02:29:23;;;;;;;4.67;4.27;;;19.70;99.90;;;;;;5011035;28;20267;-72
2022/05/11 02:31:51;;;;;;;4.13;3.83;;;19.80;99.90;;;;;;5011192;28;20298;-72
2022/05/11 02:36:58;;;;;;;5.03;4.13;;;19.90;99.90;;;;;;5010450;28;20206;-72
2022/05/11 02:39:25;;;;;;;4.70;4.33;;;20.00;99.90;;;;;;5010742;28;20198;-72
2022/05/11 02:41:52;;;;;;;4.53;4.13;;;20.00;99.90;;;;;;5010460;28;20284;-72
2022/05/11 02:44:18;;;;;;;4.63;4.03;;;20.00;99.90;;;;;;5010866;28;20308;-72
2022/05/11 02:46:46;;;;;;;4.30;3.90;;;20.00;99.90;;;;;;5011071;28;20205;-72
2022/05/11 02:49:13;;;;;;;4.87;4.40;;;20.00;99.90;;;;;;5010963;28;20558;-72
2022/05/11 02:51:39;;;;;;;4.90;4.40;;;20.00;99.90;;;;;;5010925;28;20225;-72
2022/05/11 02:54:06;;;;;;;4.33;3.93;;;20.00;99.90;;;;;;5010584;28;20213;-74
2022/05/11 02:56:33;;;;;;;4.33;4.00;;;20.10;99.90;;;;;;5010808;28;20209;-73
2022/05/11 02:58:59;;;;;;;4.70;4.40;;;20.10;99.90;;;;;;5015966;28;20220;-73
2022/05/11 03:01:30;;;;;;;5.07;4.60;;;20.00;99.90;;;;;;5029865;28;20988;-73
2022/05/11 03:03:58;;;;;;;5.13;4.70;;;19.90;99.90;;;;;;5012434;28;20222;-73
2022/05/11 03:06:31;;;;;;;5.30;4.80;;;19.50;99.90;;;;;;5010070;28;20205;-71
2022/05/11 03:08:57;;;;;;;5.40;5.03;;;19.40;99.90;;;;;;5009683;28;20209;-73
2022/05/11 03:11:24;;;;;;;6.70;4.90;;;19.50;99.90;;;;;;5009199;28;20213;-73
2022/05/11 03:13:51;;;;;;;5.23;4.90;;;19.50;99.90;;;;;;5010046;28;20255;-74
2022/05/11 03:16:27;;;;;;;5.10;4.63;;;19.60;99.90;;;;;;4998930;28;20210;-73
2022/05/11 03:18:53;;;;;;;5.33;4.67;;;19.70;99.90;;;;;;5005041;28;20618;-73
2022/05/11 03:21:27;;;;;;;5.43;4.93;;;19.70;99.90;;;;;;5007266;28;20237;-73
2022/05/11 03:23:54;;;;;;;5.00;4.60;;;19.70;99.90;;;;;;5021389;28;20261;-72
2022/05/11 03:26:30;;;;;;;5.07;4.77;;;19.70;99.90;;;;;;5027625;28;20208;-73
2022/05/11 03:28:57;;;;;;;5.23;4.77;;;19.70;99.90;;;;;;5009111;28;20205;-72
2022/05/11 03:31:24;;;;;;;5.43;4.93;;;19.60;99.90;;;;;;5007587;28;20245;-73
2022/05/11 03:36:36;;;;;;;5.50;5.10;;;19.50;99.90;;;;;;5008287;28;20200;-73
2022/05/11 03:39:03;;;;;;;5.87;5.37;;;19.50;99.90;;;;;;5007685;28;20205;-73
2022/05/11 03:41:30;;;;;;;5.93;5.40;;;19.40;99.90;;;;;;5006625;28;20268;-73
2022/05/11 03:43:56;;;;;;;6.37;5.27;;;19.50;99.90;;;;;;5007436;28;20209;-73
2022/05/11 03:46:32;;;;;;;5.73;5.20;;;19.50;99.90;;;;;;5007831;28;20691;-73
2022/05/11 03:48:59;;;;;;;5.27;4.87;;;19.40;99.90;;;;;;5007529;28;20436;-73
2022/05/11 03:52:02;;;;;;;6.83;5.53;;;19.50;99.90;;;;;;5007306;28;20216;-73
2022/05/11 03:54:28;;;;;;;6.60;5.57;;;19.50;99.90;;;;;;5007202;28;20194;-73
2022/05/11 03:56:55;;;;;;;6.40;5.70;;;19.50;99.90;;;;;;5007568;28;20209;-73
2022/05/11 03:59:22;;;;;;;7.20;6.23;;;19.50;99.90;;;;;;5000498;28;20206;-73
2022/05/11 04:01:48;;;;;;;6.57;6.00;;;19.30;99.90;;;;;;4986584;28;20242;-73
2022/05/11 04:04:15;;;;;;;5.93;5.33;;;19.30;99.90;;;;;;5002387;28;20664;-73
2022/05/11 04:06:42;;;;;;;5.60;5.20;;;19.30;99.90;;;;;;5008140;28;20868;-73
2022/05/11 04:09:10;;;;;;;5.97;5.47;;;19.40;99.90;;;;;;5008552;28;20224;-73
2022/05/11 04:11:40;;;;;;;6.40;5.90;;;19.50;99.90;;;;;;5000430;28;20210;-73
2022/05/11 04:14:06;;;;;;;6.20;5.70;;;19.50;99.90;;;;;;4999247;28;20210;-73
2022/05/11 04:16:33;;;;;;;6.83;6.30;;;19.50;99.90;;;;;;4997590;28;20276;-74
2022/05/11 04:19:01;;;;;;;6.83;6.23;;;19.50;99.90;;;;;;4997859;28;20202;-73
2022/05/11 04:21:28;;;;;;;6.80;6.13;;;19.50;99.90;;;;;;4999188;28;20236;-73
2022/05/11 04:23:54;;;;;;;6.07;5.47;;;19.50;99.90;;;;;;4999955;28;20199;-73
2022/05/11 04:26:23;;;;;;;7.90;6.27;;;19.50;99.90;;;;;;4999250;28;20206;-73
2022/05/11 04:28:50;;;;;;;6.10;5.60;;;19.50;99.90;;;;;;4997158;28;21122;-74
2022/05/11 04:31:28;;;;;;;7.37;6.77;;;19.50;99.90;;;;;;4997912;28;20259;-74
2022/05/11 04:33:55;;;;;;;6.67;6.07;;;19.50;99.90;;;;;;4998542;28;20202;-74
2022/05/11 04:36:32;;;;;;;6.90;6.30;;;19.50;99.90;;;;;;4999694;28;20222;-73
2022/05/11 04:38:59;;;;;;;6.30;5.80;;;19.50;99.90;;;;;;4998661;28;20244;-73
2022/05/11 04:41:27;;;;;;;6.80;6.30;;;19.50;99.90;;;;;;4999290;28;20230;-74
2022/05/11 04:43:53;;;;;;;8.40;7.20;;;19.50;99.90;;;;;;4997718;28;20314;-73
2022/05/11 04:46:39;;;;;;;6.70;6.23;;;19.50;99.90;;;;;;4995438;28;20268;-73
2022/05/11 04:49:19;;;;;;;8.13;6.53;;;19.50;99.90;;;;;;4999567;28;20249;-73
2022/05/11 04:51:46;;;;;;;7.30;6.53;;;19.50;99.90;;;;;;4994577;28;20226;-73
2022/05/11 04:54:13;;;;;;;6.90;6.40;;;19.50;99.90;;;;;;4996349;28;20665;-74
2022/05/11 04:56:41;;;;;;;7.30;6.70;;;19.50;99.90;;;;;;4994450;28;20280;-72
2022/05/11 04:59:08;;;;;;;7.40;6.90;;;19.50;99.90;;;;;;5005139;28;20212;-72
2022/05/11 05:01:35;;;;;;;7.80;6.93;;;19.50;99.90;;;;;;4999503;28;20232;-72
2022/05/11 05:04:02;;;;;;;6.90;6.33;;;19.40;99.90;;;;;;4998916;28;20245;-74
2022/05/11 05:06:32;;;;;;;7.53;6.87;;;19.50;99.90;;;;;;4995881;28;20236;-74
2022/05/11 05:08:59;;;;;;;7.23;6.67;;;19.50;99.90;;;;;;4999564;28;20229;-74
2022/05/11 05:11:26;;;;;;;7.27;6.70;;;19.50;99.90;;;;;;4995295;28;20205;-73
2022/05/11 05:13:54;;;;;;;7.13;6.53;;;19.50;99.90;;;;;;4999196;28;20201;-74
2022/05/11 05:16:27;;;;;;;9.50;7.00;;;19.50;99.90;;;;;;4996571;28;20209;-74
2022/05/11 05:18:54;;;;;;;10.60;7.03;;;19.50;99.90;;;;;;5000511;28;20930;-73
2022/05/11 05:21:24;;;;;;;7.77;7.00;;;19.50;99.90;;;;;;4998872;28;20316;-73
2022/05/11 05:23:52;;;;;;;7.13;6.60;;;19.50;99.90;;;;;;4999651;28;20201;-74
2022/05/11 05:26:21;;;;;;;8.20;6.87;;;19.50;99.90;;;;;;4997306;28;20212;-73
2022/05/11 05:31:37;;;;;;;6.70;6.20;;;19.50;99.90;;;;;;5002572;28;20207;-74
2022/05/11 05:34:04;;;;;;;7.03;6.50;;;19.50;99.90;;;;;;4997104;28;20743;-74
2022/05/11 05:36:35;;;;;;;9.90;6.73;;;19.50;99.90;;;;;;4996418;28;20583;-73
2022/05/11 05:39:02;;;;;;;7.67;6.67;;;19.50;99.90;;;;;;4995172;28;20260;-73
2022/05/11 05:41:33;;;;;;;7.70;7.00;;;19.50;99.90;;;;;;5005607;28;20240;-73
2022/05/11 05:44:00;;;;;;;7.20;6.70;;;19.50;99.90;;;;;;4998536;28;20676;-71
2022/05/11 05:46:44;;;;;;;7.30;6.77;;;19.50;99.90;;;;;;4998563;28;20213;-71
2022/05/11 05:49:12;;;;;;;7.63;6.60;;;19.60;99.90;;;;;;4997286;28;20205;-74
2022/05/11 05:51:39;;;;;;;6.83;6.33;;;19.70;99.90;;;;;;4997520;28;20228;-74
2022/05/11 05:54:06;;;;;;;7.40;6.80;;;19.70;99.90;;;;;;5000378;28;20209;-74
2022/05/11 05:56:33;;;;;;;7.37;6.70;;;19.80;99.90;;;;;;4997045;28;20233;-74
2022/05/11 05:59:05;;;;;;;8.70;7.47;;;19.80;99.90;;;;;;5000065;28;20264;-74
2022/05/11 06:01:32;;;;;;;7.73;7.03;;;19.80;99.90;;;;;;5000533;28;20225;-74
2022/05/11 06:04:00;;;;;;;7.80;7.10;;;19.70;99.90;;;;;;4997295;28;20230;-74
2022/05/11 06:06:30;;;;;;;7.50;6.83;;;19.80;99.90;;;;;;4994313;28;20294;-74
2022/05/11 06:08:57;;;;;;;6.93;6.53;;;19.80;99.90;;;;;;4997539;28;20232;-74
2022/05/11 06:11:33;;;;;;;8.10;6.70;;;19.80;99.90;;;;;;4997594;28;20213;-74
2022/05/11 06:13:59;;;;;;;7.50;7.00;;;19.70;99.90;;;;;;4997614;28;20605;-74
2022/05/11 06:16:29;;;;;;;7.80;7.20;;;19.70;99.90;;;;;;4996308;28;20216;-74
2022/05/11 06:18:56;;;;;;;7.27;6.80;;;19.70;99.90;;;;;;5000966;28;20264;-74
2022/05/11 06:21:36;;;;;;;8.13;7.53;;;19.70;99.90;;;;;;4994674;28;20697;-74
2022/05/11 06:24:04;;;;;;;7.67;7.03;;;19.70;99.90;;;;;;5004163;28;20209;-74
2022/05/11 06:26:31;;;;;;;8.17;7.53;;;19.70;99.90;;;;;;5002844;28;20214;-74
2022/05/11 06:28:58;;;;;;;10.23;9.23;;;19.70;99.90;;;;;;4998131;28;20284;-73
2022/05/11 06:31:37;;;;;;;9.17;8.30;;;19.70;99.90;;;;;;4998093;28;20671;-73
2022/05/11 06:34:04;;;;;;;8.63;7.93;;;19.70;99.90;;;;;;5004241;28;20260;-74
2022/05/11 06:36:38;;;;;;;8.23;7.33;;;19.70;99.90;;;;;;5003416;28;20662;-73
2022/05/11 06:39:05;;;;;;;9.00;8.13;;;19.70;99.90;;;;;;5001411;28;20197;-74
2022/05/11 06:41:35;;;;;;;8.37;7.60;;;19.80;99.90;;;;;;5006018;28;20225;-74
2022/05/11 06:44:02;;;;;;;8.27;7.67;;;19.80;99.90;;;;;;5003048;28;20580;-74
2022/05/11 06:46:28;;;;;;;8.47;7.77;;;19.80;99.90;;;;;;5002817;28;20584;-73
2022/05/11 06:48:55;;;;;;;9.13;8.03;;;19.90;99.90;;;;;;5003556;28;20245;-74
2022/05/11 06:51:23;;;;;;;8.57;7.87;;;19.90;99.90;;;;;;5002409;28;20222;-71
2022/05/11 06:59:21;;;;;;;8.27;7.67;;;20.00;99.90;;;;;;5002938;28;20560;-73
2022/05/11 07:01:48;;;;;;;8.47;7.63;;;20.10;99.90;;;;;;5003634;28;20245;-74
2022/05/11 07:04:22;;;;;;;7.73;7.13;;;20.10;99.90;;;;;;5000897;28;20572;-73
2022/05/11 07:06:48;;;;;;;7.90;7.20;;;20.20;99.90;;;;;;4998781;28;20194;-73
2022/05/11 07:09:16;;;;;;;7.43;6.83;;;20.20;99.90;;;;;;5002773;28;20209;-74
2022/05/11 07:14:27;;;;;;;7.90;7.13;;;20.20;99.90;;;;;;5000780;28;20606;-74
2022/05/11 07:16:55;;;;;;;7.40;6.80;;;20.20;99.90;;;;;;5006052;28;20194;-71
2022/05/11 07:19:23;;;;;;;7.07;6.47;;;20.20;99.90;;;;;;5004924;28;20795;-71
2022/05/11 07:21:50;;;;;;;7.00;6.40;;;20.20;99.90;;;;;;4992526;28;20889;-71
2022/05/11 07:24:18;;;;;;;7.20;6.70;;;20.20;99.90;;;;;;5008461;28;20206;-74
2022/05/11 07:26:45;;;;;;;6.83;6.33;;;20.20;99.90;;;;;;5003225;28;20197;-73
2022/05/11 07:29:12;;;;;;;7.37;6.67;;;20.20;99.90;;;;;;4999743;28;20212;-73
2022/05/11 07:31:39;;;;;;;7.43;6.70;;;20.20;99.90;;;;;;5002981;28;20234;-73
2022/05/11 07:34:05;;;;;;;6.80;6.20;;;20.30;99.90;;;;;;5002481;28;20209;-74
2022/05/11 07:36:32;;;;;;;6.30;5.73;;;20.30;99.90;;;;;;4997785;28;20253;-74
2022/05/11 07:39:01;;;;;;;7.97;5.70;;;20.30;99.90;;;;;;4999743;28;20193;-73
2022/05/11 07:41:29;;;;;;;5.93;5.43;;;20.30;99.90;;;;;;5006264;28;20712;-74
2022/05/11 07:43:57;;;;;;;5.67;5.17;;;20.30;99.90;;;;;;5005986;28;20202;-74
2022/05/11 07:46:26;;;;;;;8.33;5.43;;;20.40;99.90;;;;;;5001056;28;20305;-74
2022/05/11 07:48:53;;;;;;;5.37;4.87;;;20.40;99.90;;;;;;4997491;28;20198;-74
2022/05/11 07:51:20;;;;;;;5.60;5.20;;;20.40;99.90;;;;;;5003108;28;20704;-74
2022/05/11 07:53:47;;;;;;;4.80;4.40;;;20.50;99.90;;;;;;4999569;28;20198;-74
2022/05/11 08:01:49;;;;;;;4.87;4.37;;;20.70;99.90;;;;;;5001872;28;20752;-74
2022/05/11 08:04:15;;;;;;;4.90;4.50;;;20.70;99.90;;;;;;4999778;28;20726;-74
2022/05/11 08:06:42;;;;;;;5.20;4.80;;;20.80;99.90;;;;;;4999990;28;20268;-74
2022/05/11 08:09:09;;;;;;;4.60;4.30;;;20.90;99.90;;;;;;4997582;28;20692;-74
2022/05/11 08:11:35;;;;;;;6.97;4.70;;;20.90;99.90;;;;;;4995200;28;20430;-74
2022/05/11 08:14:02;;;;;;;4.70;4.33;;;20.90;99.90;;;;;;4999115;28;20703;-73
2022/05/11 08:16:30;;;;;;;4.53;4.13;;;20.90;99.90;;;;;;4998853;28;20248;-71
2022/05/11 08:18:57;;;;;;;4.67;4.13;;;20.90;99.90;;;;;;4997379;28;20248;-71
2022/05/11 08:21:26;;;;;;;4.32;3.90;;;21.00;99.90;;;;;;5005649;28;20201;-74
2022/05/11 08:23:53;;;;;;;6.30;4.27;;;21.00;99.90;;;;;;5002860;28;20237;-74
2022/05/11 08:26:26;;;;;;;4.53;4.13;;;21.10;99.90;;;;;;4997813;28;20253;-74
2022/05/11 08:28:53;;;;;;;6.17;4.20;;;21.20;99.90;;;;;;4999987;28;20205;-74
2022/05/11 08:34:06;;;;;;;5.60;4.90;;;21.30;99.90;;;;;;5002808;28;20586;-74
2022/05/11 08:36:33;;;;;;;4.88;3.97;;;21.40;99.90;;;;;;4997865;28;20280;-74
2022/05/11 08:39:01;;;;;;;5.13;4.77;;;21.40;99.90;;;;;;4998911;28;20194;-74
2022/05/11 08:41:34;;;;;;;7.50;6.77;;;21.50;99.90;;;;;;4998471;28;20206;-73
2022/05/11 08:44:05;;;;;;;6.23;5.10;;;21.60;99.90;;;;;;4999008;28;20344;-73
2022/05/11 08:46:51;;;;;;;5.40;4.90;;;21.70;99.90;;;;;;4999506;28;20423;-74
2022/05/11 08:49:22;;;;;;;4.90;4.50;;;21.70;99.90;;;;;;4988886;28;20195;-74
2022/05/11 08:51:56;;;;;;;4.93;4.53;;;21.80;99.90;;;;;;5002009;28;20228;-74
2022/05/11 08:54:28;;;;;;;8.40;5.43;;;21.90;99.90;;;;;;5007892;28;20202;-74
2022/05/11 08:56:56;;;;;;;10.52;5.05;;;21.90;99.90;;;;;;5008327;28;20256;-74
2022/05/11 08:59:26;;;;;;;5.88;5.38;;;21.90;99.90;;;;;;5016785;28;20213;-74
2022/05/11 09:01:59;;;;;;;4.95;4.57;;;22.00;99.90;;;;;;5027106;28;20278;-74
2022/05/11 09:04:37;;;;;;;6.07;4.78;;;22.10;99.90;;;;;;5016128;28;20561;-73
2022/05/11 09:07:04;;;;;;;5.72;5.22;;;22.10;99.90;;;;;;5008136;28;20240;-74
2022/05/11 09:09:31;;;;;;;5.53;5.13;;;22.10;99.90;;;;;;5007481;28;20205;-74
2022/05/11 09:11:58;;;;;;;4.82;4.53;;;22.10;99.90;;;;;;5007776;28;20209;-74
2022/05/11 09:14:31;;;;;;;4.88;4.53;;;22.10;99.90;;;;;;4998036;28;20199;-73
2022/05/11 09:16:58;;;;;;;6.22;4.88;;;22.10;99.90;;;;;;5002206;28;20292;-74
2022/05/11 09:19:29;;;;;;;7.03;5.50;;;22.20;99.90;;;;;;5002339;28;20201;-74
2022/05/11 09:21:58;;;;;;;6.13;4.85;;;22.30;99.90;;;;;;4999254;28;20197;-74
2022/05/11 09:24:31;;;;;;;5.90;5.50;;;22.40;99.90;;;;;;5000729;28;20258;-74
2022/05/11 09:27:04;;;;;;;6.25;5.65;;;22.50;99.90;;;;;;5004599;28;20201;-74
2022/05/11 09:29:38;;;;;;;5.55;5.03;;;22.70;99.90;;;;;;4997879;28;20197;-74
2022/05/11 09:32:38;;;;;;;7.63;5.70;;;22.90;99.90;;;;;;4995967;28;20214;-74
2022/05/11 09:35:21;;;;;;;5.95;5.30;;;23.10;99.90;;;;;;4933125;29;20216;-73
2022/05/11 09:37:57;;;;;;;6.60;6.15;;;23.20;99.90;;;;;;4995778;28;20205;-73
2022/05/11 09:40:24;;;;;;;7.22;6.25;;;23.30;99.90;;;;;;4998451;28;20202;-74
2022/05/11 09:42:54;;;;;;;8.05;6.63;;;23.30;99.90;;;;;;4996900;28;20288;-73
2022/05/11 09:45:39;;;;;;;7.53;6.07;;;23.40;99.90;;;;;;5000950;28;20293;-74
2022/05/11 09:48:13;;;;;;;5.82;5.40;;;23.40;99.90;;;;;;5000260;28;20273;-73
2022/05/11 09:50:42;;;;;;;6.35;5.93;;;23.40;99.90;;;;;;4998689;28;20193;-73
2022/05/11 09:53:27;;;;;;;6.00;5.60;;;23.40;99.90;;;;;;4998134;28;20691;-74
2022/05/11 09:55:54;;;;;;;6.38;5.88;;;23.40;99.90;;;;;;5001136;28;20236;-74
2022/05/11 09:58:31;;;;;;;6.20;5.80;;;23.50;99.90;;;;;;4998610;28;20252;-74
2022/05/11 10:03:53;;;;;;;6.90;5.82;;;23.70;99.90;;;;;;4996195;28;20312;-74
2022/05/11 10:06:22;;;;;;;6.65;6.22;;;23.70;99.90;;;;;;4999538;28;20260;-74
2022/05/11 10:08:51;;;;;;;5.80;5.35;;;23.70;99.90;;;;;;4994714;28;20264;-74
2022/05/11 10:11:23;;;;;;;6.75;5.82;;;23.70;99.90;;;;;;5001044;28;20216;-74
2022/05/11 10:13:56;;;;;;;5.82;5.32;;;23.80;99.90;;;;;;5003038;28;20225;-74
2022/05/11 10:22:29;;;;;;;5.57;5.15;;;24.00;99.90;;;;;;5006328;28;20738;-74
2022/05/11 10:25:11;;;;;;;5.97;5.47;;;24.10;99.90;;;;;;5002193;28;20707;-74
2022/05/11 10:27:44;;;;;;;5.65;5.18;;;24.30;99.90;;;;;;5008037;28;20185;-74
2022/05/11 10:30:18;;;;;;;5.72;5.32;;;24.30;99.90;;;;;;5003086;28;20249;-74
2022/05/11 10:33:04;;;;;;;5.53;4.95;;;24.40;99.90;;;;;;5003947;28;20194;-74
2022/05/11 10:35:37;;;;;;;5.72;5.10;;;24.40;99.90;;;;;;5001976;28;20186;-71
2022/05/11 10:38:32;;;;;;;5.35;4.68;;;24.70;98.90;;;;;;4999023;28;20190;-71
2022/05/11 10:41:18;;;;;;;4.93;4.38;;;25.00;97.80;;;;;;5004024;28;20848;-74
2022/05/11 10:43:58;;;;;;;4.32;3.97;;;25.30;97.50;;;;;;5001599;28;20217;-74
2022/05/11 10:46:32;;;;;;;4.63;4.22;;;25.50;96.30;;;;;;5006147;28;20191;-74
2022/05/11 10:49:14;;;;;;;4.32;3.75;;;25.50;96.60;;;;;;5004042;28;20217;-74
2022/05/11 10:51:52;;;;;;;4.32;3.67;;;25.70;96.10;;;;;;5005099;28;20225;-74
2022/05/11 10:54:29;;;;;;;4.20;3.95;;;25.90;96.40;;;;;;4999507;28;20198;-74
2022/05/11 10:57:08;;;;;;;4.53;3.55;;;26.10;95.60;;;;;;5001912;28;20220;-74
2022/05/11 11:00:02;;;;;;;9.43;3.90;;;26.50;94.00;;;;;;4999885;28;20202;-74
2022/05/11 11:03:08;;;;;;;4.05;3.50;;;26.40;93.30;;;;;;5003833;28;20249;-74
2022/05/11 11:07:10;;;;;;;7.10;3.78;;;26.60;93.00;;;;;;5001561;28;20244;-74
2022/05/11 11:08:44;;;;;;;4.03;3.53;;;26.50;92.30;;;;;;4997630;28;20218;-74
2022/05/11 11:11:37;;;;;;;3.75;3.53;;;26.40;92.80;;;;;;5006307;28;20206;-74
2022/05/11 11:14:08;;;;;;;3.53;3.33;;;26.40;92.60;;;;;;5003228;28;20194;-74
2022/05/11 11:16:37;;;;;;;4.07;3.67;;;26.50;93.00;;;;;;5003849;28;20194;-75
2022/05/11 11:19:07;;;;;;;3.88;3.60;;;26.50;92.80;;;;;;5003677;28;20217;-75
2022/05/11 11:21:35;;;;;;;4.40;3.45;;;26.70;92.50;;;;;;5005106;28;20197;-75
2022/05/11 11:24:17;;;;;;;4.93;3.00;;;26.90;92.40;;;;;;4999319;28;20261;-75
2022/05/11 11:26:50;;;;;;;4.78;3.70;;;26.70;92.10;;;;;;4998254;28;20653;-75
2022/05/11 11:29:20;;;;;;;3.90;3.53;;;26.90;92.40;;;;;;5000678;28;20194;-75
2022/05/11 11:32:12;;;;;;;4.78;3.33;;;26.80;92.20;;;;;;5002422;28;20206;-75
2022/05/11 11:34:41;;;;;;;3.65;3.45;;;26.90;92.00;;;;;;5003018;28;20209;-75
2022/05/11 11:37:43;;;;;;;4.53;3.20;;;26.90;91.80;;;;;;4997801;28;20206;-75
2022/05/11 11:40:37;;;;;;;4.15;3.22;;;27.20;91.60;;;;;;4929279;29;20222;-75
2022/05/11 11:43:42;;;;;;;5.75;2.90;;;27.10;90.30;;;;;;5002118;28;20241;-75
2022/05/11 11:46:37;;;;;;;4.82;2.90;;;27.00;87.30;;;;;;5005042;28;20641;-75
2022/05/11 11:49:08;;;;;;;3.30;3.00;;;26.90;86.40;;;;;;4959543;28;20232;-75
2022/05/11 11:51:56;;;;;;;4.90;2.78;;;26.90;86.00;;;;;;5001177;28;20225;-75
2022/05/11 11:54:48;;;;;;;3.10;2.83;;;27.10;87.60;;;;;;4997337;28;20644;-75
2022/05/11 11:57:29;;;;;;;4.65;3.03;;;27.40;87.30;;;;;;5002563;28;20708;-75
2022/05/11 11:59:59;;;;;;;19.10;4.35;;;27.30;87.60;;;;;;5001380;28;20198;-75
2022/05/11 12:02:29;;;;;;;6.00;2.83;;;27.40;86.80;;;;;;5001041;28;20233;-76
2022/05/11 12:05:06;;;;;;;3.88;2.85;;;27.60;86.40;;;;;;5002046;28;20221;-75
2022/05/11 12:16:06;;;;;;;4.00;3.10;;;27.80;84.00;;;;;;5007910;28;20229;-74
2022/05/11 12:18:35;;;;;;;3.58;3.28;;;28.10;83.70;;;;;;5008435;28;20216;-74
2022/05/11 12:21:04;;;;;;;7.38;3.15;;;28.20;82.90;;;;;;5009279;28;20205;-74
2022/05/11 12:23:36;;;;;;;4.88;3.00;;;28.30;84.10;;;;;;5019192;28;20232;-75
2022/05/11 12:26:06;;;;;;;4.22;3.08;;;28.70;84.30;;;;;;5014910;28;20218;-75
2022/05/11 12:28:36;;;;;;;3.78;3.35;;;28.50;82.10;;;;;;5009213;28;20224;-75
2022/05/11 12:31:26;;;;;;;3.75;3.00;;;28.40;83.20;;;;;;5009114;28;20268;-75
2022/05/11 12:33:56;;;;;;;3.63;3.33;;;28.10;82.90;;;;;;4988914;28;20213;-74
2022/05/11 12:36:33;;;;;;;3.00;2.80;;;28.20;83.60;;;;;;5000619;28;20206;-74
2022/05/11 12:39:00;;;;;;;8.60;2.90;;;28.10;83.80;;;;;;5007251;28;20204;-74
2022/05/11 12:41:27;;;;;;;3.17;2.78;;;28.00;84.00;;;;;;5006518;28;20221;-74
2022/05/11 12:43:57;;;;;;;4.50;3.38;;;27.80;84.70;;;;;;5006866;28;20580;-75
2022/05/11 12:46:27;;;;;;;3.33;2.95;;;27.60;85.30;;;;;;5000747;28;20206;-75
2022/05/11 12:48:56;;;;;;;6.75;2.90;;;27.80;85.40;;;;;;4989402;28;20272;-75
2022/05/11 12:51:30;;;;;;;5.57;3.13;;;28.20;85.30;;;;;;4988803;28;20841;-75
2022/05/11 12:53:59;;;;;;;3.00;2.80;;;28.30;84.30;;;;;;4988984;28;21195;-74
2022/05/11 12:56:28;;;;;;;3.42;3.13;;;28.40;84.60;;;;;;5006665;28;20217;-75
2022/05/11 12:58:56;;;;;;;4.20;3.20;;;28.70;85.60;;;;;;5008428;28;20623;-74
2022/05/11 13:01:27;;;;;;;17.20;3.38;;;28.70;83.80;;;;;;5005319;28;20292;-74
2022/05/11 13:03:58;;;;;;;3.20;2.90;;;28.50;83.40;;;;;;5008162;28;20306;-75
2022/05/11 13:06:31;;;;;;;2.88;2.67;;;28.50;83.50;;;;;;5008204;28;20202;-74
2022/05/11 13:09:03;;;;;;;3.20;2.90;;;28.20;84.10;;;;;;5008180;28;20288;-74
2022/05/11 13:11:32;;;;;;;4.63;2.92;;;28.10;84.40;;;;;;5007967;28;20205;-75
2022/05/11 13:14:00;;;;;;;5.75;3.10;;;28.10;84.10;;;;;;5008405;28;20252;-74
2022/05/11 13:16:32;;;;;;;6.18;2.92;;;27.90;83.80;;;;;;5007595;28;20609;-74
2022/05/11 13:19:08;;;;;;;4.30;2.72;;;27.80;83.50;;;;;;5008175;28;20189;-74
2022/05/11 13:22:28;;;;;;;3.53;2.78;;;28.00;81.90;;;;;;5008532;28;20217;-75
2022/05/11 13:24:58;;;;;;;3.00;2.67;;;28.20;80.70;;;;;;4988126;28;21122;-74
2022/05/11 13:27:34;;;;;;;5.78;2.97;;;28.00;80.80;;;;;;4989056;28;20218;-74
2022/05/11 13:30:09;;;;;;;5.18;2.85;;;27.80;81.20;;;;;;5012110;28;20204;-74
2022/05/11 13:32:39;;;;;;;6.45;2.97;;;27.90;80.60;;;;;;5001709;28;20680;-75
2022/05/11 13:35:21;;;;;;;4.13;2.63;;;27.90;81.20;;;;;;5005381;28;20700;-74
2022/05/11 13:38:04;;;;;;;5.93;2.85;;;27.70;81.40;;;;;;5006204;28;20249;-74
2022/05/11 13:40:33;;;;;;;7.88;3.35;;;27.80;82.20;;;;;;5005820;28;20252;-74
2022/05/11 13:43:00;;;;;;;6.88;3.00;;;27.80;82.00;;;;;;5005990;28;20205;-73
2022/05/11 13:45:27;;;;;;;3.90;3.28;;;27.80;82.30;;;;;;5005800;28;20213;-73
2022/05/11 13:48:15;;;;;;;4.45;3.10;;;27.80;80.50;;;;;;5006238;28;20213;-74
2022/05/11 13:50:44;;;;;;;4.78;2.85;;;27.70;80.90;;;;;;5010314;28;20280;-74
2022/05/11 13:53:27;;;;;;;5.85;3.10;;;27.60;81.60;;;;;;5009940;28;20242;-74
2022/05/11 13:56:22;;;;;;;3.58;2.97;;;27.50;81.30;;;;;;5010445;28;20197;-74
2022/05/11 13:59:07;;;;;;;2.67;2.53;;;27.40;81.70;;;;;;5005358;28;20212;-75